createdAt,value
2019-06-01T00:00:46.382Z,55.18
2019-06-01T00:03:21.202Z,54.58
2019-06-01T00:05:52.982Z,54.31
2019-06-01T00:08:25.316Z,54.85
2019-06-01T00:10:57.059Z,55.20
2019-06-01T00:13:30.503Z,55.44
2019-06-01T00:16:02.516Z,55.71
2019-06-01T00:18:35.558Z,56.11
2019-06-01T00:21:07.317Z,56.26
2019-06-01T00:23:40.295Z,56.23
2019-06-01T00:26:13.299Z,56.44
2019-06-01T00:28:45.797Z,56.42
2019-06-01T00:31:20.595Z,57.51
2019-06-01T00:33:52.372Z,58.34
2019-06-01T00:36:24.087Z,58.41
2019-06-01T00:38:55.826Z,58.43
2019-06-01T00:41:29.469Z,58.06
2019-06-01T00:44:03.095Z,58.33
2019-06-01T00:46:35.733Z,58.09
2019-06-01T00:49:07.507Z,58.19
2019-06-01T00:51:39.244Z,58.44
2019-06-01T00:54:12.655Z,58.71
2019-06-01T00:56:45.583Z,58.65
2019-06-01T00:59:19.206Z,58.77
2019-06-01T01:01:52.378Z,59.08
2019-06-01T01:04:24.506Z,58.98
2019-06-01T01:06:58.232Z,59.02
2019-06-01T01:09:31.592Z,59.45
2019-06-01T01:12:03.404Z,59.65
2019-06-01T01:14:36.131Z,59.91
2019-06-01T01:17:07.917Z,60.32
2019-06-01T01:19:39.659Z,60.27
2019-06-01T01:22:11.394Z,59.72
2019-06-01T01:24:43.093Z,59.41
2019-06-01T01:27:15.905Z,59.15
2019-06-01T01:29:48.883Z,59.04
2019-06-01T01:32:20.860Z,59.36
2019-06-01T01:34:54.222Z,60.08
2019-06-01T01:37:25.972Z,60.75
2019-06-01T01:39:58.558Z,60.95
2019-06-01T01:42:30.944Z,60.97
2019-06-01T01:45:02.818Z,61.10
2019-06-01T01:47:34.893Z,61.08
2019-06-01T01:50:08.267Z,60.67
2019-06-01T01:52:40.030Z,60.20
2019-06-01T01:55:12.278Z,60.42
2019-06-01T01:57:44.072Z,60.21
2019-06-01T02:00:18.482Z,60.07
2019-06-01T02:02:51.756Z,59.74
2019-06-01T02:05:23.776Z,59.64
2019-06-01T02:07:57.189Z,59.64
2019-06-01T02:10:30.212Z,59.46
2019-06-01T02:13:03.886Z,60.24
2019-06-01T02:15:36.102Z,60.76
2019-06-01T02:18:09.156Z,60.94
2019-06-01T02:20:41.023Z,60.92
2019-06-01T02:23:14.425Z,61.26
2019-06-01T02:25:46.183Z,60.95
2019-06-01T02:28:17.931Z,61.00
2019-06-01T02:30:49.981Z,61.07
2019-06-01T02:33:21.790Z,60.80
2019-06-01T02:35:54.341Z,60.35
2019-06-01T02:38:26.798Z,60.80
2019-06-01T02:41:01.041Z,60.49
2019-06-01T02:43:32.991Z,61.29
2019-06-01T02:46:07.172Z,60.89
2019-06-01T02:48:38.161Z,60.88
2019-06-01T02:51:11.801Z,61.43
2019-06-01T02:53:45.412Z,61.80
2019-06-01T02:56:18.887Z,61.72
2019-06-01T02:58:51.988Z,61.80
2019-06-01T03:01:32.891Z,62.07
2019-06-01T03:04:08.990Z,62.17
2019-06-01T03:06:43.115Z,62.27
2019-06-01T03:09:14.843Z,62.77
2019-06-01T03:11:46.758Z,63.53
2019-06-01T03:14:18.568Z,63.52
2019-06-01T03:16:51.910Z,63.26
2019-06-01T03:19:25.344Z,63.38
2019-06-01T03:22:03.755Z,63.66
2019-06-01T03:24:43.117Z,63.89
2019-06-01T03:27:16.523Z,64.00
2019-06-01T03:29:57.316Z,64.17
2019-06-01T03:32:36.839Z,64.31
2019-06-01T03:35:04.636Z,64.28
2019-06-01T03:37:36.548Z,64.11
2019-06-01T03:40:19.731Z,63.78
2019-06-01T03:42:44.946Z,63.77
2019-06-01T03:45:16.709Z,64.04
2019-06-01T03:47:51.395Z,63.82
2019-06-01T03:50:23.136Z,63.35
2019-06-01T03:52:55.726Z,63.44
2019-06-01T03:55:27.781Z,63.78
2019-06-01T03:58:01.352Z,64.00
2019-06-01T04:00:33.104Z,63.66
2019-06-01T04:03:07.190Z,63.72
2019-06-01T04:05:39.051Z,63.54
2019-06-01T04:08:11.711Z,64.01
2019-06-01T04:10:43.464Z,64.10
2019-06-01T04:13:16.884Z,64.20
2019-06-01T04:15:48.750Z,64.06
2019-06-01T04:18:20.732Z,64.52
2019-06-01T04:20:52.484Z,64.50
2019-06-01T04:23:24.446Z,64.96
2019-06-01T04:25:58.133Z,64.02
2019-06-01T04:28:34.440Z,63.99
2019-06-01T04:31:06.557Z,63.86
2019-06-01T04:33:38.448Z,63.95
2019-06-01T04:36:13.094Z,64.15
2019-06-01T04:38:44.964Z,64.09
2019-06-01T04:41:18.369Z,64.15
2019-06-01T04:43:51.753Z,64.00
2019-06-01T04:46:23.516Z,64.30
2019-06-01T04:48:55.333Z,64.25
2019-06-01T04:51:27.140Z,64.39
2019-06-01T04:54:00.497Z,64.44
2019-06-01T04:56:32.237Z,64.69
2019-06-01T04:59:04.905Z,65.05
2019-06-01T05:01:38.316Z,65.07
2019-06-01T05:04:11.176Z,65.07
2019-06-01T05:06:43.102Z,64.75
2019-06-01T05:09:16.768Z,65.22
2019-06-01T05:11:48.503Z,65.25
2019-06-01T05:14:22.893Z,64.79
2019-06-01T05:16:54.701Z,64.47
2019-06-01T05:19:30.282Z,64.67
2019-06-01T05:22:02.054Z,64.70
2019-06-01T05:24:33.841Z,65.59
2019-06-01T05:27:09.015Z,66.01
2019-06-01T05:29:40.907Z,65.70
2019-06-01T05:32:14.656Z,65.48
2019-06-01T05:34:46.610Z,64.98
2019-06-01T05:37:20.012Z,64.64
2019-06-01T05:39:53.096Z,63.95
2019-06-01T05:42:24.798Z,63.71
2019-06-01T05:44:58.204Z,63.62
2019-06-01T05:47:30.346Z,63.19
2019-06-01T05:50:04.174Z,62.28
2019-06-01T05:52:37.570Z,60.31
2019-06-01T05:55:10.355Z,57.52
2019-06-01T05:57:42.143Z,54.99
2019-06-01T06:00:15.051Z,52.75
2019-06-01T06:02:48.123Z,51.61
2019-06-01T06:05:22.829Z,51.11
2019-06-01T06:07:58.019Z,49.68
2019-06-01T06:10:33.418Z,48.14
2019-06-01T06:13:08.523Z,47.47
2019-06-01T06:15:40.305Z,47.08
2019-06-01T06:18:12.088Z,46.13
2019-06-01T06:20:43.887Z,46.42
2019-06-01T06:23:16.449Z,45.26
2019-06-01T06:25:49.668Z,44.51
2019-06-01T06:28:23.241Z,43.28
2019-06-01T06:30:57.911Z,42.33
2019-06-01T06:33:29.858Z,41.21
2019-06-01T06:36:03.298Z,41.27
2019-06-01T06:38:35.175Z,41.20
2019-06-01T06:41:06.899Z,40.06
2019-06-01T06:43:38.694Z,39.00
2019-06-01T06:46:10.411Z,39.51
2019-06-01T06:48:46.322Z,38.89
2019-06-01T06:51:19.246Z,38.75
2019-06-01T06:53:54.119Z,37.94
2019-06-01T06:56:26.229Z,36.60
2019-06-01T06:59:00.006Z,36.92
2019-06-01T07:01:31.737Z,36.27
2019-06-01T07:04:12.850Z,35.64
2019-06-01T07:06:40.001Z,34.96
2019-06-01T07:09:13.821Z,34.54
2019-06-01T07:11:47.401Z,33.82
2019-06-01T07:14:19.364Z,34.11
2019-06-01T07:16:51.924Z,33.67
2019-06-01T07:19:25.834Z,35.18
2019-06-01T07:22:00.821Z,32.60
2019-06-01T07:24:32.612Z,31.57
2019-06-01T07:27:04.366Z,30.66
2019-06-01T07:29:37.105Z,30.47
2019-06-01T07:32:09.063Z,30.66
2019-06-01T07:34:43.101Z,31.14
2019-06-01T07:37:15.577Z,30.77
2019-06-01T07:39:48.673Z,30.54
2019-06-01T07:42:23.501Z,29.89
2019-06-01T07:44:53.967Z,28.99
2019-06-01T07:47:27.214Z,28.75
2019-06-01T07:49:59.804Z,29.87
2019-06-01T07:52:32.416Z,28.39
2019-06-01T07:55:04.444Z,28.16
2019-06-01T07:57:36.198Z,28.12
2019-06-01T08:00:08.762Z,26.84
2019-06-01T08:02:40.544Z,27.83
2019-06-01T08:05:12.435Z,26.89
2019-06-01T08:07:46.680Z,26.89
2019-06-01T08:10:19.709Z,26.61
2019-06-01T08:12:52.517Z,26.63
2019-06-01T08:15:25.799Z,26.43
2019-06-01T08:17:57.731Z,26.27
2019-06-01T08:20:30.353Z,26.11
2019-06-01T08:23:02.169Z,26.95
2019-06-01T08:25:35.752Z,26.08
2019-06-01T08:28:07.651Z,25.67
2019-06-01T08:30:43.979Z,26.09
2019-06-01T08:33:15.831Z,25.63
2019-06-01T08:35:49.650Z,25.86
2019-06-01T08:38:21.534Z,24.51
2019-06-01T08:40:54.976Z,25.60
2019-06-01T08:43:27.660Z,25.34
2019-06-01T08:45:59.406Z,27.15
2019-06-01T08:48:33.951Z,26.11
2019-06-01T08:51:06.507Z,24.57
2019-06-01T08:53:38.396Z,24.35
2019-06-01T08:56:10.226Z,23.44
2019-06-01T08:58:41.960Z,23.44
2019-06-01T09:01:13.743Z,23.04
2019-06-01T09:03:47.570Z,23.23
2019-06-01T09:06:19.298Z,22.80
2019-06-01T09:08:51.075Z,22.75
2019-06-01T09:11:27.033Z,22.27
2019-06-01T09:14:00.297Z,22.06
2019-06-01T09:16:36.994Z,20.95
2019-06-01T09:19:11.354Z,20.76
2019-06-01T09:21:42.234Z,23.32
2019-06-01T09:24:14.273Z,22.74
2019-06-01T09:26:47.796Z,23.50
2019-06-01T09:29:19.841Z,21.26
2019-06-01T09:31:51.991Z,21.15
2019-06-01T09:34:23.816Z,21.18
2019-06-01T09:36:55.954Z,21.49
2019-06-01T09:39:29.450Z,20.64
2019-06-01T09:42:01.378Z,20.06
2019-06-01T09:44:33.588Z,20.87
2019-06-01T09:47:05.544Z,20.21
2019-06-01T09:49:38.072Z,20.38
2019-06-01T09:52:20.462Z,19.12
2019-06-01T09:57:47.445Z,20.24
2019-06-01T10:00:23.365Z,20.04
2019-06-01T10:02:55.618Z,20.15
2019-06-01T10:09:20.839Z,18.43
2019-06-01T10:11:59.093Z,17.96
2019-06-01T10:14:34.829Z,18.39
2019-06-01T10:17:07.994Z,18.22
2019-06-01T10:19:39.830Z,19.04
2019-06-01T10:22:13.617Z,18.07
2019-06-01T10:24:45.395Z,17.22
2019-06-01T10:27:17.134Z,17.52
2019-06-01T10:29:52.815Z,17.12
2019-06-01T10:32:24.699Z,16.09
2019-06-01T10:34:56.457Z,15.81
2019-06-01T10:37:28.443Z,16.48
2019-06-01T10:40:02.105Z,16.56
2019-06-01T10:42:35.994Z,17.84
2019-06-01T10:45:07.978Z,19.06
2019-06-01T10:47:43.312Z,18.39
2019-06-01T10:50:17.317Z,18.96
2019-06-01T10:52:49.593Z,20.82
2019-06-01T10:55:22.326Z,18.42
2019-06-01T10:57:55.913Z,18.86
2019-06-01T11:00:38.738Z,17.83
2019-06-01T11:03:01.542Z,19.36
2019-06-01T11:05:34.911Z,19.93
2019-06-01T11:08:06.743Z,19.46
2019-06-01T11:10:39.101Z,21.53
2019-06-01T11:13:11.300Z,20.61
2019-06-01T11:15:45.416Z,20.05
2019-06-01T11:18:17.245Z,20.42
2019-06-01T11:20:50.607Z,19.29
2019-06-01T11:23:22.404Z,18.77
2019-06-01T11:25:54.727Z,20.17
2019-06-01T11:28:27.660Z,20.85
2019-06-01T11:30:59.392Z,20.05
2019-06-01T11:33:31.544Z,20.20
2019-06-01T11:36:04.977Z,21.66
2019-06-01T11:38:38.337Z,22.97
2019-06-01T11:41:10.281Z,23.41
2019-06-01T11:43:45.886Z,22.72
2019-06-01T11:46:17.230Z,23.26
2019-06-01T11:48:50.025Z,25.20
2019-06-01T11:51:21.845Z,25.51
2019-06-01T11:53:53.648Z,25.85
2019-06-01T11:56:27.354Z,26.25
2019-06-01T11:58:59.159Z,24.38
2019-06-01T12:01:30.964Z,23.15
2019-06-01T12:04:04.396Z,24.18
2019-06-01T12:06:37.872Z,23.65
2019-06-01T12:09:11.140Z,23.16
2019-06-01T12:11:44.148Z,23.26
2019-06-01T12:14:16.059Z,22.89
2019-06-01T12:16:47.821Z,22.78
2019-06-01T12:19:19.630Z,22.08
2019-06-01T12:21:51.494Z,20.93
2019-06-01T12:24:25.704Z,22.43
2019-06-01T12:26:58.402Z,22.98
2019-06-01T12:29:31.937Z,23.05
2019-06-01T12:32:03.880Z,22.29
2019-06-01T12:34:35.633Z,23.84
2019-06-01T12:37:07.398Z,22.68
2019-06-01T12:39:40.389Z,22.46
2019-06-01T12:42:12.237Z,22.93
2019-06-01T12:44:45.789Z,22.92
2019-06-01T12:47:19.371Z,24.01
2019-06-01T12:49:52.605Z,23.83
2019-06-01T12:52:24.414Z,22.86
2019-06-01T12:55:00.344Z,22.00
2019-06-01T12:57:32.237Z,21.83
2019-06-01T13:00:03.987Z,21.40
2019-06-01T13:02:36.979Z,21.56
2019-06-01T13:05:08.712Z,21.45
2019-06-01T13:07:57.475Z,21.76
2019-06-01T13:10:19.308Z,20.44
2019-06-01T13:12:52.252Z,20.54
2019-06-01T13:15:25.252Z,21.42
2019-06-01T13:17:57.081Z,21.26
2019-06-01T13:20:30.753Z,21.93
2019-06-01T13:23:04.422Z,21.76
2019-06-01T13:25:41.451Z,21.95
2019-06-01T13:28:38.003Z,23.15
2019-06-01T13:31:07.546Z,22.74
2019-06-01T13:33:42.224Z,21.84
2019-06-01T13:36:16.021Z,21.72
2019-06-01T13:38:48.795Z,22.07
2019-06-01T13:41:20.641Z,20.96
2019-06-01T13:43:53.548Z,21.49
2019-06-01T13:46:25.367Z,21.64
2019-06-01T13:48:58.436Z,21.18
2019-06-01T13:51:30.685Z,20.90
2019-06-01T13:54:02.471Z,21.21
2019-06-01T13:56:36.182Z,20.71
2019-06-01T13:59:09.210Z,20.75
2019-06-01T14:01:41.090Z,20.78
2019-06-01T14:04:13.307Z,19.71
2019-06-01T14:06:45.216Z,20.53
2019-06-01T14:09:21.620Z,19.56
2019-06-01T14:11:51.711Z,20.26
2019-06-01T14:14:23.450Z,20.57
2019-06-01T14:16:57.104Z,20.62
2019-06-01T14:19:28.837Z,18.68
2019-06-01T14:22:00.620Z,19.73
2019-06-01T14:24:42.091Z,20.55
2019-06-01T14:27:10.037Z,19.82
2019-06-01T14:29:41.775Z,19.34
2019-06-01T14:32:17.668Z,19.94
2019-06-01T14:34:51.086Z,18.40
2019-06-01T14:37:24.695Z,19.88
2019-06-01T14:39:58.307Z,20.20
2019-06-01T14:42:30.294Z,19.31
2019-06-01T14:45:02.687Z,20.18
2019-06-01T14:47:40.298Z,20.49
2019-06-01T14:50:12.173Z,20.05
2019-06-01T14:52:45.642Z,19.15
2019-06-01T14:55:17.586Z,19.77
2019-06-01T14:57:56.109Z,21.47
2019-06-01T15:00:28.478Z,19.53
2019-06-01T15:03:04.643Z,18.99
2019-06-01T15:05:59.279Z,18.88
2019-06-01T15:08:36.784Z,19.16
2019-06-01T15:11:08.553Z,19.40
2019-06-01T15:13:40.285Z,19.02
2019-06-01T15:16:12.196Z,19.00
2019-06-01T15:18:43.963Z,18.25
2019-06-01T15:21:17.808Z,18.60
2019-06-01T15:23:49.820Z,19.62
2019-06-01T15:26:23.018Z,18.96
2019-06-01T15:28:54.809Z,19.09
2019-06-01T15:31:26.687Z,19.31
2019-06-01T15:33:59.433Z,18.86
2019-06-01T15:36:31.944Z,19.70
2019-06-01T15:39:04.588Z,19.71
2019-06-01T15:41:38.342Z,19.83
2019-06-01T15:44:11.882Z,20.50
2019-06-01T15:46:43.708Z,21.20
2019-06-01T15:49:15.900Z,20.04
2019-06-01T15:51:49.374Z,20.27
2019-06-01T15:54:21.249Z,20.19
2019-06-01T15:56:54.270Z,20.62
2019-06-01T15:59:26.808Z,20.22
2019-06-01T16:01:59.288Z,20.11
2019-06-01T16:04:34.796Z,21.05
2019-06-01T16:07:06.643Z,20.41
2019-06-01T16:09:43.141Z,21.85
2019-06-01T16:12:14.841Z,20.52
2019-06-01T16:14:48.266Z,21.48
2019-06-01T16:17:20.073Z,19.99
2019-06-01T16:19:51.895Z,20.81
2019-06-01T16:22:25.353Z,20.72
2019-06-01T16:24:58.150Z,19.99
2019-06-01T16:27:30.036Z,19.43
2019-06-01T16:30:06.464Z,19.06
2019-06-01T16:32:47.596Z,19.96
2019-06-01T16:35:34.762Z,19.34
2019-06-01T16:38:19.499Z,19.50
2019-06-01T16:41:03.427Z,19.51
2019-06-01T16:43:51.439Z,19.93
2019-06-01T16:46:48.908Z,19.62
2019-06-01T16:49:28.130Z,19.21
2019-06-01T16:52:12.291Z,18.91
2019-06-01T16:54:42.717Z,19.03
2019-06-01T16:57:20.550Z,18.85
2019-06-01T17:00:00.328Z,18.77
2019-06-01T17:02:43.243Z,18.74
2019-06-01T17:05:22.640Z,19.96
2019-06-01T17:07:59.194Z,19.55
2019-06-01T17:10:43.677Z,18.12
2019-06-01T17:13:24.990Z,18.60
2019-06-01T17:15:57.013Z,18.98
2019-06-01T17:18:32.451Z,18.77
2019-06-01T17:21:05.498Z,18.30
2019-06-01T17:23:37.305Z,19.56
2019-06-01T17:26:09.023Z,18.55
2019-06-01T17:28:40.745Z,19.00
2019-06-01T17:31:16.258Z,19.10
2019-06-01T17:33:49.795Z,19.40
2019-06-01T17:36:23.930Z,19.60
2019-06-01T17:38:55.763Z,20.08
2019-06-01T17:41:27.592Z,20.51
2019-06-01T17:44:00.473Z,20.49
2019-06-01T17:46:43.346Z,20.88
2019-06-01T17:49:08.513Z,21.66
2019-06-01T17:51:41.978Z,21.98
2019-06-01T17:54:15.366Z,22.89
2019-06-01T17:56:48.723Z,22.79
2019-06-01T17:59:20.432Z,23.53
2019-06-01T18:01:52.193Z,24.05
2019-06-01T18:04:24.019Z,23.53
2019-06-01T18:06:55.789Z,23.54
2019-06-01T18:09:29.614Z,23.86
2019-06-01T18:12:03.924Z,23.22
2019-06-01T18:14:35.859Z,22.69
2019-06-01T18:17:08.269Z,22.06
2019-06-01T18:19:41.871Z,22.09
2019-06-01T18:22:13.592Z,22.08
2019-06-01T18:24:45.355Z,22.47
2019-06-01T18:27:19.721Z,22.72
2019-06-01T18:29:51.424Z,23.34
2019-06-01T18:32:23.198Z,23.07
2019-06-01T18:35:00.052Z,24.72
2019-06-01T18:37:33.533Z,24.40
2019-06-01T18:40:07.783Z,24.21
2019-06-01T18:42:40.971Z,24.68
2019-06-01T18:45:13.645Z,24.92
2019-06-01T18:47:47.214Z,24.67
2019-06-01T18:50:18.947Z,25.34
2019-06-01T18:52:51.214Z,26.02
2019-06-01T18:55:27.437Z,25.68
2019-06-01T18:58:00.153Z,26.78
2019-06-01T19:00:33.546Z,26.47
2019-06-01T19:03:07.008Z,26.88
2019-06-01T19:05:39.214Z,27.71
2019-06-01T19:08:11.723Z,27.99
2019-06-01T19:10:43.994Z,28.92
2019-06-01T19:13:15.968Z,28.89
2019-06-01T19:15:49.529Z,29.74
2019-06-01T19:18:21.290Z,29.98
2019-06-01T19:20:53.072Z,29.87
2019-06-01T19:23:26.434Z,30.06
2019-06-01T19:26:00.914Z,30.02
2019-06-01T19:28:32.619Z,32.00
2019-06-01T19:31:04.505Z,31.91
2019-06-01T19:33:36.321Z,31.20
2019-06-01T19:36:08.918Z,31.08
2019-06-01T19:38:41.247Z,31.16
2019-06-01T19:41:15.473Z,31.09
2019-06-01T19:43:48.951Z,31.33
2019-06-01T19:46:20.691Z,31.71
2019-06-01T19:48:52.502Z,31.52
2019-06-01T19:51:24.755Z,31.90
2019-06-01T19:53:58.385Z,31.20
2019-06-01T19:56:32.542Z,31.93
2019-06-01T19:59:04.323Z,34.00
2019-06-01T20:01:37.671Z,33.51
2019-06-01T20:04:10.421Z,32.08
2019-06-01T20:06:44.875Z,31.90
2019-06-01T20:09:17.160Z,32.40
2019-06-01T20:12:01.313Z,31.12
2019-06-01T20:14:24.480Z,32.77
2019-06-01T20:16:56.263Z,33.27
2019-06-01T20:19:29.280Z,34.14
2019-06-01T20:22:02.762Z,33.04
2019-06-01T20:24:34.554Z,34.15
2019-06-01T20:27:07.958Z,33.32
2019-06-01T20:29:39.675Z,33.68
2019-06-01T20:32:13.639Z,34.53
2019-06-01T20:34:47.569Z,35.20
2019-06-01T20:37:20.165Z,35.34
2019-06-01T20:39:52.003Z,35.27
2019-06-01T20:42:32.136Z,35.37
2019-06-01T20:44:57.709Z,34.84
2019-06-01T20:47:31.773Z,36.68
2019-06-01T20:50:03.954Z,35.64
2019-06-01T20:52:35.746Z,37.39
2019-06-01T20:55:08.356Z,38.34
2019-06-01T20:57:40.219Z,38.49
2019-06-01T21:00:15.964Z,38.46
2019-06-01T21:02:47.948Z,39.04
2019-06-01T21:05:22.110Z,38.58
2019-06-01T21:07:56.983Z,40.40
2019-06-01T21:10:29.386Z,39.08
2019-06-01T21:13:01.467Z,38.97
2019-06-01T21:15:33.331Z,40.39
2019-06-01T21:18:05.043Z,39.60
2019-06-01T21:20:36.796Z,40.28
2019-06-01T21:23:08.502Z,41.25
2019-06-01T21:25:42.677Z,41.44
2019-06-01T21:28:16.388Z,41.17
2019-06-01T21:30:48.235Z,40.80
2019-06-01T21:33:24.953Z,41.13
2019-06-01T21:36:04.897Z,41.28
2019-06-01T21:38:38.362Z,41.56
2019-06-01T21:41:10.366Z,41.94
2019-06-01T21:43:42.113Z,42.45
2019-06-01T21:46:17.552Z,42.55
2019-06-01T21:48:49.599Z,43.60
2019-06-01T21:51:24.004Z,43.61
2019-06-01T21:54:07.506Z,44.30
2019-06-01T21:56:40.862Z,44.88
2019-06-01T21:59:18.461Z,44.33
2019-06-01T22:01:50.238Z,45.15
2019-06-01T22:04:25.329Z,46.10
2019-06-01T22:06:58.410Z,45.82
2019-06-01T22:09:30.129Z,46.11
2019-06-01T22:12:01.867Z,45.65
2019-06-01T22:14:38.051Z,46.49
2019-06-01T22:17:13.028Z,46.12
2019-06-01T22:19:44.825Z,46.18
2019-06-01T22:22:17.507Z,46.08
2019-06-01T22:24:49.384Z,45.60
2019-06-01T22:27:22.174Z,46.35
2019-06-01T22:29:54.176Z,45.71
2019-06-01T22:32:29.217Z,45.91
2019-06-01T22:35:01.183Z,46.40
2019-06-01T22:37:35.312Z,46.26
2019-06-01T22:40:07.722Z,46.56
2019-06-01T22:42:41.470Z,46.91
2019-06-01T22:45:16.973Z,47.17
2019-06-01T22:47:50.232Z,47.65
2019-06-01T22:50:22.859Z,48.58
2019-06-01T22:52:55.161Z,47.71
2019-06-01T22:55:28.891Z,47.01
2019-06-01T22:58:02.462Z,46.71
2019-06-01T23:00:36.544Z,46.30
2019-06-01T23:03:10.045Z,46.45
2019-06-01T23:05:44.720Z,46.89
2019-06-01T23:08:17.399Z,47.26
2019-06-01T23:10:53.247Z,48.94
2019-06-01T23:13:28.220Z,49.79
2019-06-01T23:16:00.179Z,49.99
2019-06-01T23:18:35.315Z,49.60
2019-06-01T23:21:07.912Z,49.52
2019-06-01T23:23:42.615Z,49.50
2019-06-01T23:26:15.724Z,49.56
2019-06-01T23:28:47.594Z,49.38
2019-06-01T23:31:19.977Z,49.96
2019-06-01T23:33:55.601Z,49.85
2019-06-01T23:36:28.849Z,49.98
2019-06-01T23:39:01.152Z,50.05
2019-06-01T23:41:36.228Z,49.96
2019-06-01T23:44:12.150Z,50.58
2019-06-01T23:46:44.460Z,50.63
2019-06-01T23:49:16.965Z,50.34
2019-06-01T23:51:48.906Z,50.30
2019-06-01T23:54:21.963Z,50.83
2019-06-01T23:56:54.092Z,50.03
2019-06-01T23:59:30.797Z,49.40
